sensor_id;sensor_type;location;lat;lon;timestamp;pressure;altitude;pressure_sealevel;temperature;humidity
65384;BME280;51986;52.788;41.368;2024-03-25T00:01:16;98211.13;;;4.07;60.58
65384;BME280;51986;52.788;41.368;2024-03-25T00:03:42;98195.09;;;4.02;60.26
65384;BME280;51986;52.788;41.368;2024-03-25T00:06:08;98202.19;;;3.98;60.36
65384;BME280;51986;52.788;41.368;2024-03-25T00:08:34;98210.75;;;4.05;61.01
65384;BME280;51986;52.788;41.368;2024-03-25T00:11:00;98190.63;;;4.06;60.65
65384;BME280;51986;52.788;41.368;2024-03-25T00:13:26;98183.94;;;4.01;60.83
65384;BME280;51986;52.788;41.368;2024-03-25T00:15:52;98190.63;;;4.09;60.78
65384;BME280;51986;52.788;41.368;2024-03-25T00:18:18;98191.75;;;4.08;60.93
65384;BME280;51986;52.788;41.368;2024-03-25T00:20:44;98195.84;;;4.06;60.76
65384;BME280;51986;52.788;41.368;2024-03-25T00:23:09;98197.34;;;3.96;61.21
65384;BME280;51986;52.788;41.368;2024-03-25T00:25:35;98215.59;;;3.93;61.35
65384;BME280;51986;52.788;41.368;2024-03-25T00:28:01;98221.94;;;4.09;60.99
65384;BME280;51986;52.788;41.368;2024-03-25T00:30:27;98177.56;;;3.99;60.86
65384;BME280;51986;52.788;41.368;2024-03-25T00:32:53;98189.88;;;4.05;60.79
65384;BME280;51986;52.788;41.368;2024-03-25T00:35:19;98184.66;;;4.05;60.86
65384;BME280;51986;52.788;41.368;2024-03-25T00:37:45;98187.28;;;3.98;61.66
65384;BME280;51986;52.788;41.368;2024-03-25T00:40:11;98174.97;;;3.95;61.24
65384;BME280;51986;52.788;41.368;2024-03-25T00:42:37;98185.41;;;4.13;60.90
65384;BME280;51986;52.788;41.368;2024-03-25T00:45:04;98189.13;;;4.05;61.08
65384;BME280;51986;52.788;41.368;2024-03-25T00:47:30;98170.88;;;4.08;60.91
65384;BME280;51986;52.788;41.368;2024-03-25T00:49:56;98169.00;;;4.12;60.77
65384;BME280;51986;52.788;41.368;2024-03-25T00:52:22;98197.31;;;4.18;60.48
65384;BME280;51986;52.788;41.368;2024-03-25T00:54:47;98185.41;;;4.16;60.36
65384;BME280;51986;52.788;41.368;2024-03-25T00:57:13;98191.38;;;4.03;61.10
65384;BME280;51986;52.788;41.368;2024-03-25T00:59:39;98173.47;;;4.15;61.05
65384;BME280;51986;52.788;41.368;2024-03-25T01:02:05;98177.19;;;4.22;60.60
65384;BME280;51986;52.788;41.368;2024-03-25T01:04:31;98165.25;;;4.13;60.91
65384;BME280;51986;52.788;41.368;2024-03-25T01:06:57;98174.19;;;4.20;60.70
65384;BME280;51986;52.788;41.368;2024-03-25T01:09:23;98157.06;;;4.26;60.84
65384;BME280;51986;52.788;41.368;2024-03-25T01:11:49;98175.31;;;4.22;60.57
65384;BME280;51986;52.788;41.368;2024-03-25T01:14:15;98174.94;;;4.31;60.56
65384;BME280;51986;52.788;41.368;2024-03-25T01:16:41;98170.47;;;4.24;60.67
65384;BME280;51986;52.788;41.368;2024-03-25T01:19:07;98190.59;;;4.31;60.54
65384;BME280;51986;52.788;41.368;2024-03-25T01:21:33;98172.72;;;4.22;60.71
65384;BME280;51986;52.788;41.368;2024-03-25T01:23:58;98181.31;;;4.15;60.67
65384;BME280;51986;52.788;41.368;2024-03-25T01:26:24;98167.13;;;4.09;61.04
65384;BME280;51986;52.788;41.368;2024-03-25T01:28:50;98192.09;;;4.10;61.28
65384;BME280;51986;52.788;41.368;2024-03-25T01:31:16;98191.00;;;4.04;61.30
65384;BME280;51986;52.788;41.368;2024-03-25T01:33:43;98192.50;;;4.02;61.73
65384;BME280;51986;52.788;41.368;2024-03-25T01:36:09;98200.69;;;4.00;61.59
65384;BME280;51986;52.788;41.368;2024-03-25T01:38:34;98174.59;;;4.07;61.52
65384;BME280;51986;52.788;41.368;2024-03-25T01:41:13;98223.06;;;4.01;61.95
65384;BME280;51986;52.788;41.368;2024-03-25T01:43:39;98172.72;;;4.08;61.06
65384;BME280;51986;52.788;41.368;2024-03-25T01:46:05;98205.53;;;3.98;61.69
65384;BME280;51986;52.788;41.368;2024-03-25T01:48:31;98198.44;;;4.13;61.43
65384;BME280;51986;52.788;41.368;2024-03-25T01:50:58;98183.16;;;4.08;61.80
65384;BME280;51986;52.788;41.368;2024-03-25T01:53:27;98175.34;;;3.97;61.76
65384;BME280;51986;52.788;41.368;2024-03-25T01:55:55;98192.13;;;4.03;61.46
65384;BME280;51986;52.788;41.368;2024-03-25T01:58:22;98176.81;;;4.09;61.61
65384;BME280;51986;52.788;41.368;2024-03-25T02:00:50;98186.16;;;3.81;62.15
65384;BME280;51986;52.788;41.368;2024-03-25T02:03:17;98177.97;;;3.94;62.13
65384;BME280;51986;52.788;41.368;2024-03-25T02:05:43;98198.44;;;3.99;62.30
65384;BME280;51986;52.788;41.368;2024-03-25T02:08:09;98189.88;;;3.80;62.82
65384;BME280;51986;52.788;41.368;2024-03-25T02:10:37;98188.75;;;3.81;62.90
65384;BME280;51986;52.788;41.368;2024-03-25T02:13:03;98176.09;;;3.76;62.45
65384;BME280;51986;52.788;41.368;2024-03-25T02:15:30;98180.19;;;3.84;62.88
65384;BME280;51986;52.788;41.368;2024-03-25T02:17:56;98180.56;;;3.79;62.66
65384;BME280;51986;52.788;41.368;2024-03-25T02:20:22;98182.44;;;3.89;62.84
65384;BME280;51986;52.788;41.368;2024-03-25T02:22:48;98191.38;;;3.88;62.70
65384;BME280;51986;52.788;41.368;2024-03-25T02:25:14;98157.47;;;3.85;62.40
65384;BME280;51986;52.788;41.368;2024-03-25T02:27:42;98188.75;;;3.81;63.16
65384;BME280;51986;52.788;41.368;2024-03-25T02:30:09;98188.75;;;3.74;63.45
65384;BME280;51986;52.788;41.368;2024-03-25T02:32:36;98178.72;;;3.73;63.27
65384;BME280;51986;52.788;41.368;2024-03-25T02:35:04;98188.38;;;3.65;63.90
65384;BME280;51986;52.788;41.368;2024-03-25T02:37:31;98188.38;;;3.69;63.64
65384;BME280;51986;52.788;41.368;2024-03-25T02:39:59;98194.72;;;3.78;63.11
65384;BME280;51986;52.788;41.368;2024-03-25T02:42:27;98177.22;;;3.68;63.43
65384;BME280;51986;52.788;41.368;2024-03-25T02:44:54;98183.56;;;3.74;63.84
65384;BME280;51986;52.788;41.368;2024-03-25T02:47:21;98167.13;;;3.52;63.89
65384;BME280;51986;52.788;41.368;2024-03-25T02:49:47;98181.31;;;3.65;63.77
65384;BME280;51986;52.788;41.368;2024-03-25T02:52:13;98187.63;;;3.64;63.88
65384;BME280;51986;52.788;41.368;2024-03-25T02:54:39;98200.69;;;3.75;63.75
65384;BME280;51986;52.788;41.368;2024-03-25T02:57:05;98218.19;;;3.71;64.01
65384;BME280;51986;52.788;41.368;2024-03-25T02:59:30;98202.53;;;3.71;64.14
65384;BME280;51986;52.788;41.368;2024-03-25T03:01:56;98191.00;;;3.69;63.97
65384;BME280;51986;52.788;41.368;2024-03-25T03:04:22;98213.34;;;3.70;63.89
65384;BME280;51986;52.788;41.368;2024-03-25T03:06:48;98264.03;;;3.69;63.93
65384;BME280;51986;52.788;41.368;2024-03-25T03:09:14;98220.03;;;3.56;64.35
65384;BME280;51986;52.788;41.368;2024-03-25T03:11:40;98200.66;;;3.50;64.78
65384;BME280;51986;52.788;41.368;2024-03-25T03:14:06;98217.44;;;3.67;64.80
65384;BME280;51986;52.788;41.368;2024-03-25T03:16:32;98218.91;;;3.61;64.85
65384;BME280;51986;52.788;41.368;2024-03-25T03:18:58;98200.66;;;3.61;64.76
65384;BME280;51986;52.788;41.368;2024-03-25T03:21:24;98216.69;;;3.49;65.03
65384;BME280;51986;52.788;41.368;2024-03-25T03:23:50;98236.84;;;3.73;64.71
65384;BME280;51986;52.788;41.368;2024-03-25T03:26:16;98227.16;;;3.74;64.49
65384;BME280;51986;52.788;41.368;2024-03-25T03:28:41;98231.63;;;3.80;64.47
65384;BME280;51986;52.788;41.368;2024-03-25T03:31:08;98221.19;;;3.73;64.82
65384;BME280;51986;52.788;41.368;2024-03-25T03:33:34;98221.19;;;3.80;64.37
65384;BME280;51986;52.788;41.368;2024-03-25T03:35:59;98214.47;;;3.79;64.23
65384;BME280;51986;52.788;41.368;2024-03-25T03:38:25;98231.63;;;3.91;64.18
65384;BME280;51986;52.788;41.368;2024-03-25T03:40:59;98227.88;;;3.96;64.07
65384;BME280;51986;52.788;41.368;2024-03-25T03:43:25;98217.47;;;4.21;63.48
65384;BME280;51986;52.788;41.368;2024-03-25T03:45:50;98204.00;;;4.51;62.38
65384;BME280;51986;52.788;41.368;2024-03-25T03:48:17;98216.97;;;4.86;61.97
65384;BME280;51986;52.788;41.368;2024-03-25T03:50:43;98218.66;;;5.32;59.59
65384;BME280;51986;52.788;41.368;2024-03-25T03:53:09;98229.25;;;5.70;58.44
65384;BME280;51986;52.788;41.368;2024-03-25T03:55:36;98212.97;;;5.96;57.68
65384;BME280;51986;52.788;41.368;2024-03-25T03:58:02;98208.53;;;6.35;56.52
65384;BME280;51986;52.788;41.368;2024-03-25T04:00:28;98239.47;;;6.51;56.13
65384;BME280;51986;52.788;41.368;2024-03-25T04:02:53;98229.19;;;6.67;55.43
65384;BME280;51986;52.788;41.368;2024-03-25T04:05:20;98224.72;;;6.64;55.26
65384;BME280;51986;52.788;41.368;2024-03-25T04:07:46;98231.59;;;6.51;55.96
65384;BME280;51986;52.788;41.368;2024-03-25T04:10:12;98224.91;;;6.46;56.15
65384;BME280;51986;52.788;41.368;2024-03-25T04:12:39;98226.53;;;6.70;55.76
65384;BME280;51986;52.788;41.368;2024-03-25T04:15:05;98239.91;;;6.80;55.36
65384;BME280;51986;52.788;41.368;2024-03-25T04:17:31;98228.28;;;6.46;55.36
65384;BME280;51986;52.788;41.368;2024-03-25T04:20:00;98240.94;;;6.52;55.51
65384;BME280;51986;52.788;41.368;2024-03-25T04:22:26;98219.16;;;6.58;55.56
65384;BME280;51986;52.788;41.368;2024-03-25T04:24:52;98201.00;;;6.40;56.26
65384;BME280;51986;52.788;41.368;2024-03-25T04:27:18;98254.91;;;6.38;56.71
65384;BME280;51986;52.788;41.368;2024-03-25T04:29:44;98237.41;;;6.31;56.44
65384;BME280;51986;52.788;41.368;2024-03-25T04:32:10;98261.41;;;6.22;56.94
65384;BME280;51986;52.788;41.368;2024-03-25T04:34:36;98233.03;;;6.17;56.76
65384;BME280;51986;52.788;41.368;2024-03-25T04:37:01;98260.50;;;6.40;56.43
65384;BME280;51986;52.788;41.368;2024-03-25T04:39:27;98255.78;;;6.24;57.05
65384;BME280;51986;52.788;41.368;2024-03-25T04:41:53;98243.00;;;6.30;57.04
65384;BME280;51986;52.788;41.368;2024-03-25T04:44:19;98242.75;;;6.17;57.43
65384;BME280;51986;52.788;41.368;2024-03-25T04:46:45;98327.25;;;6.21;57.27
65384;BME280;51986;52.788;41.368;2024-03-25T04:49:11;98226.78;;;6.45;56.30
65384;BME280;51986;52.788;41.368;2024-03-25T04:51:37;98260.97;;;6.69;55.74
65384;BME280;51986;52.788;41.368;2024-03-25T04:54:03;98249.69;;;6.76;55.60
65384;BME280;51986;52.788;41.368;2024-03-25T04:56:29;98270.81;;;6.99;55.25
65384;BME280;51986;52.788;41.368;2024-03-25T04:58:55;98248.09;;;7.19;54.63
65384;BME280;51986;52.788;41.368;2024-03-25T05:01:21;98294.44;;;7.30;54.47
65384;BME280;51986;52.788;41.368;2024-03-25T05:03:46;98255.41;;;7.62;53.07
65384;BME280;51986;52.788;41.368;2024-03-25T05:06:12;98274.53;;;7.90;53.02
65384;BME280;51986;52.788;41.368;2024-03-25T05:08:38;98253.38;;;8.00;52.43
65384;BME280;51986;52.788;41.368;2024-03-25T05:11:04;98264.66;;;7.97;52.61
65384;BME280;51986;52.788;41.368;2024-03-25T05:13:30;98265.41;;;8.21;52.06
65384;BME280;51986;52.788;41.368;2024-03-25T05:15:56;98277.41;;;8.46;51.27
65384;BME280;51986;52.788;41.368;2024-03-25T05:18:22;98264.84;;;8.34;51.22
65384;BME280;51986;52.788;41.368;2024-03-25T05:20:48;98278.41;;;8.32;51.24
65384;BME280;51986;52.788;41.368;2024-03-25T05:23:13;98263.88;;;8.47;50.39
65384;BME280;51986;52.788;41.368;2024-03-25T05:25:39;98298.88;;;8.64;50.54
65384;BME280;51986;52.788;41.368;2024-03-25T05:28:05;98263.63;;;8.62;50.25
65384;BME280;51986;52.788;41.368;2024-03-25T05:30:31;98306.22;;;8.73;50.29
65384;BME280;51986;52.788;41.368;2024-03-25T05:32:57;98299.06;;;8.97;49.74
65384;BME280;51986;52.788;41.368;2024-03-25T05:35:23;98288.97;;;8.72;49.97
65384;BME280;51986;52.788;41.368;2024-03-25T05:37:49;98291.44;;;8.36;50.70
65384;BME280;51986;52.788;41.368;2024-03-25T05:40:15;98301.91;;;8.16;51.42
65384;BME280;51986;52.788;41.368;2024-03-25T05:42:44;98292.50;;;8.42;50.60
65384;BME280;51986;52.788;41.368;2024-03-25T05:45:10;98304.75;;;8.25;51.09
65384;BME280;51986;52.788;41.368;2024-03-25T05:47:36;98300.44;;;8.38;50.51
65384;BME280;51986;52.788;41.368;2024-03-25T05:50:02;98289.56;;;8.36;50.86
65384;BME280;51986;52.788;41.368;2024-03-25T05:52:28;98288.94;;;8.52;50.31
65384;BME280;51986;52.788;41.368;2024-03-25T05:54:54;98308.47;;;8.51;50.43
65384;BME280;51986;52.788;41.368;2024-03-25T05:57:20;98306.66;;;7.97;51.32
65384;BME280;51986;52.788;41.368;2024-03-25T05:59:46;98320.38;;;7.85;51.71
65384;BME280;51986;52.788;41.368;2024-03-25T06:02:12;98324.72;;;7.65;52.46
65384;BME280;51986;52.788;41.368;2024-03-25T06:04:38;98324.81;;;7.88;51.89
65384;BME280;51986;52.788;41.368;2024-03-25T06:07:04;98324.66;;;7.72;52.51
65384;BME280;51986;52.788;41.368;2024-03-25T06:09:30;98340.28;;;8.10;51.37
65384;BME280;51986;52.788;41.368;2024-03-25T06:11:56;98320.47;;;8.29;50.73
65384;BME280;51986;52.788;41.368;2024-03-25T06:14:22;98315.75;;;8.43;50.29
65384;BME280;51986;52.788;41.368;2024-03-25T06:16:48;98323.38;;;8.11;50.50
65384;BME280;51986;52.788;41.368;2024-03-25T06:19:14;98329.84;;;8.02;51.32
65384;BME280;51986;52.788;41.368;2024-03-25T06:21:40;98337.19;;;7.61;52.06
65384;BME280;51986;52.788;41.368;2024-03-25T06:24:06;98335.44;;;7.78;51.49
65384;BME280;51986;52.788;41.368;2024-03-25T06:26:32;98343.00;;;7.75;51.56
65384;BME280;51986;52.788;41.368;2024-03-25T06:28:58;98343.09;;;7.65;51.79
65384;BME280;51986;52.788;41.368;2024-03-25T06:31:24;98344.03;;;7.82;51.75
65384;BME280;51986;52.788;41.368;2024-03-25T06:33:49;98341.53;;;7.98;51.11
65384;BME280;51986;52.788;41.368;2024-03-25T06:36:16;98394.75;;;8.33;50.24
65384;BME280;51986;52.788;41.368;2024-03-25T06:38:42;98332.03;;;8.58;49.97
65384;BME280;51986;52.788;41.368;2024-03-25T06:41:07;98318.94;;;8.31;50.58
65384;BME280;51986;52.788;41.368;2024-03-25T06:43:34;98345.16;;;8.35;50.50
65384;BME280;51986;52.788;41.368;2024-03-25T06:46:00;98336.63;;;8.27;50.46
65384;BME280;51986;52.788;41.368;2024-03-25T06:48:26;98343.59;;;8.61;49.87
65384;BME280;51986;52.788;41.368;2024-03-25T06:50:56;98338.25;;;8.91;49.46
65384;BME280;51986;52.788;41.368;2024-03-25T06:53:22;98329.47;;;9.18;48.12
65384;BME280;51986;52.788;41.368;2024-03-25T06:55:59;98344.94;;;9.55;48.21
65384;BME280;51986;52.788;41.368;2024-03-25T06:58:26;98345.00;;;9.88;47.33
65384;BME280;51986;52.788;41.368;2024-03-25T07:00:53;98331.72;;;9.75;47.30
65384;BME280;51986;52.788;41.368;2024-03-25T07:03:20;98323.19;;;10.04;46.94
65384;BME280;51986;52.788;41.368;2024-03-25T07:05:47;98348.75;;;9.71;47.58
65384;BME280;51986;52.788;41.368;2024-03-25T07:08:14;98334.66;;;9.97;46.82
65384;BME280;51986;52.788;41.368;2024-03-25T07:10:44;98327.97;;;9.76;47.51
65384;BME280;51986;52.788;41.368;2024-03-25T07:13:11;98338.28;;;10.03;46.85
65384;BME280;51986;52.788;41.368;2024-03-25T07:15:37;98351.38;;;9.91;47.16
65384;BME280;51986;52.788;41.368;2024-03-25T07:18:03;98350.53;;;9.58;48.52
65384;BME280;51986;52.788;41.368;2024-03-25T07:20:30;98317.22;;;9.31;47.95
65384;BME280;51986;52.788;41.368;2024-03-25T07:22:57;98343.06;;;9.16;48.37
65384;BME280;51986;52.788;41.368;2024-03-25T07:25:24;98333.41;;;9.10;48.67
65384;BME280;51986;52.788;41.368;2024-03-25T07:27:51;98351.03;;;9.52;48.02
65384;BME280;51986;52.788;41.368;2024-03-25T07:30:17;98362.38;;;9.86;47.81
65384;BME280;51986;52.788;41.368;2024-03-25T07:32:43;98361.91;;;10.07;46.50
65384;BME280;51986;52.788;41.368;2024-03-25T07:35:09;98349.53;;;9.88;46.97
65384;BME280;51986;52.788;41.368;2024-03-25T07:37:35;98347.94;;;9.74;47.30
65384;BME280;51986;52.788;41.368;2024-03-25T07:40:01;98353.72;;;9.85;47.26
65384;BME280;51986;52.788;41.368;2024-03-25T07:42:27;98347.78;;;9.45;48.20
65384;BME280;51986;52.788;41.368;2024-03-25T07:44:53;98372.69;;;9.40;47.73
65384;BME280;51986;52.788;41.368;2024-03-25T07:47:19;98373.22;;;9.51;48.24
65384;BME280;51986;52.788;41.368;2024-03-25T07:49:45;98338.13;;;9.38;48.29
65384;BME280;51986;52.788;41.368;2024-03-25T07:52:11;98376.72;;;9.65;47.96
65384;BME280;51986;52.788;41.368;2024-03-25T07:54:37;98355.69;;;9.25;48.24
65384;BME280;51986;52.788;41.368;2024-03-25T07:57:04;98373.41;;;9.41;49.00
65384;BME280;51986;52.788;41.368;2024-03-25T07:59:30;98366.22;;;9.25;48.74
65384;BME280;51986;52.788;41.368;2024-03-25T08:01:56;98355.25;;;9.66;48.21
65384;BME280;51986;52.788;41.368;2024-03-25T08:04:22;98384.22;;;9.46;48.20
65384;BME280;51986;52.788;41.368;2024-03-25T08:06:48;98359.03;;;9.45;48.33
65384;BME280;51986;52.788;41.368;2024-03-25T08:09:14;98380.31;;;9.35;48.87
65384;BME280;51986;52.788;41.368;2024-03-25T08:11:40;98363.69;;;9.18;48.93
65384;BME280;51986;52.788;41.368;2024-03-25T08:14:09;98363.97;;;9.63;48.02
65384;BME280;51986;52.788;41.368;2024-03-25T08:16:35;98359.59;;;9.37;49.02
65384;BME280;51986;52.788;41.368;2024-03-25T08:19:01;98380.25;;;9.38;48.62
65384;BME280;51986;52.788;41.368;2024-03-25T08:21:27;98359.66;;;9.53;48.42
65384;BME280;51986;52.788;41.368;2024-03-25T08:23:53;98352.69;;;9.63;48.28
65384;BME280;51986;52.788;41.368;2024-03-25T08:26:19;98370.19;;;9.33;48.40
65384;BME280;51986;52.788;41.368;2024-03-25T08:28:45;98381.78;;;9.16;49.25
65384;BME280;51986;52.788;41.368;2024-03-25T08:31:11;98354.72;;;8.48;50.45
65384;BME280;51986;52.788;41.368;2024-03-25T08:33:37;98379.91;;;8.93;50.66
65384;BME280;51986;52.788;41.368;2024-03-25T08:36:03;98386.44;;;8.85;49.63
65384;BME280;51986;52.788;41.368;2024-03-25T08:38:29;98371.53;;;8.78;50.17
65384;BME280;51986;52.788;41.368;2024-03-25T08:40:55;98381.34;;;8.74;50.08
65384;BME280;51986;52.788;41.368;2024-03-25T08:43:22;98370.13;;;8.70;50.26
65384;BME280;51986;52.788;41.368;2024-03-25T08:45:48;98383.03;;;8.61;50.22
65384;BME280;51986;52.788;41.368;2024-03-25T08:48:14;98386.75;;;8.90;49.85
65384;BME280;51986;52.788;41.368;2024-03-25T08:50:40;98380.09;;;9.06;49.91
65384;BME280;51986;52.788;41.368;2024-03-25T08:53:06;98356.84;;;8.81;49.89
65384;BME280;51986;52.788;41.368;2024-03-25T08:55:32;98373.16;;;9.15;49.48
65384;BME280;51986;52.788;41.368;2024-03-25T08:57:58;98402.72;;;9.43;49.67
65384;BME280;51986;52.788;41.368;2024-03-25T09:00:27;98370.00;;;9.24;49.22
65384;BME280;51986;52.788;41.368;2024-03-25T09:02:53;98411.31;;;9.67;48.33
65384;BME280;51986;52.788;41.368;2024-03-25T09:05:20;98381.88;;;9.88;47.88
65384;BME280;51986;52.788;41.368;2024-03-25T09:07:49;98381.75;;;9.95;47.59
65384;BME280;51986;52.788;41.368;2024-03-25T09:10:16;98387.72;;;10.16;46.94
65384;BME280;51986;52.788;41.368;2024-03-25T09:12:42;98371.66;;;10.10;47.37
65384;BME280;51986;52.788;41.368;2024-03-25T09:15:08;98352.59;;;9.86;47.83
65384;BME280;51986;52.788;41.368;2024-03-25T09:17:34;98373.97;;;9.88;48.42
65384;BME280;51986;52.788;41.368;2024-03-25T09:19:59;98366.50;;;9.87;47.67
65384;BME280;51986;52.788;41.368;2024-03-25T09:22:25;98367.66;;;10.02;47.84
65384;BME280;51986;52.788;41.368;2024-03-25T09:24:51;98281.19;;;9.64;47.29
65384;BME280;51986;52.788;41.368;2024-03-25T09:27:17;98386.94;;;10.68;46.77
65384;BME280;51986;52.788;41.368;2024-03-25T09:29:43;98378.13;;;10.58;46.42
65384;BME280;51986;52.788;41.368;2024-03-25T09:32:09;98384.78;;;10.63;46.71
65384;BME280;51986;52.788;41.368;2024-03-25T09:34:37;98374.41;;;10.55;47.20
65384;BME280;51986;52.788;41.368;2024-03-25T09:37:03;98363.31;;;10.93;46.04
65384;BME280;51986;52.788;41.368;2024-03-25T09:39:29;98369.91;;;10.85;46.67
65384;BME280;51986;52.788;41.368;2024-03-25T09:41:55;98395.50;;;10.72;46.10
65384;BME280;51986;52.788;41.368;2024-03-25T09:44:24;98359.72;;;11.00;45.97
65384;BME280;51986;52.788;41.368;2024-03-25T09:46:51;98361.41;;;10.94;45.83
65384;BME280;51986;52.788;41.368;2024-03-25T09:49:17;98359.59;;;10.91;45.41
65384;BME280;51986;52.788;41.368;2024-03-25T09:51:44;98343.88;;;10.87;45.96
65384;BME280;51986;52.788;41.368;2024-03-25T09:54:10;98359.34;;;10.85;45.82
65384;BME280;51986;52.788;41.368;2024-03-25T09:56:38;98366.41;;;10.59;45.98
65384;BME280;51986;52.788;41.368;2024-03-25T09:59:05;98358.75;;;10.32;47.20
65384;BME280;51986;52.788;41.368;2024-03-25T10:01:32;98386.88;;;10.19;47.63
65384;BME280;51986;52.788;41.368;2024-03-25T10:03:58;98365.59;;;10.62;46.51
65384;BME280;51986;52.788;41.368;2024-03-25T10:06:24;98397.13;;;10.66;46.77
65384;BME280;51986;52.788;41.368;2024-03-25T10:08:54;98398.13;;;10.72;46.26
65384;BME280;51986;52.788;41.368;2024-03-25T10:11:19;98397.63;;;10.77;46.54
65384;BME280;51986;52.788;41.368;2024-03-25T10:13:46;98384.59;;;10.37;47.29
65384;BME280;51986;52.788;41.368;2024-03-25T10:16:14;98397.19;;;10.29;47.19
65384;BME280;51986;52.788;41.368;2024-03-25T10:18:39;98369.88;;;10.72;46.24
65384;BME280;51986;52.788;41.368;2024-03-25T10:21:10;98373.00;;;10.67;46.94
65384;BME280;51986;52.788;41.368;2024-03-25T10:23:36;98388.22;;;10.92;46.40
65384;BME280;51986;52.788;41.368;2024-03-25T10:26:02;98367.53;;;10.74;46.23
65384;BME280;51986;52.788;41.368;2024-03-25T10:28:29;98395.84;;;10.57;47.08
65384;BME280;51986;52.788;41.368;2024-03-25T10:30:56;98375.88;;;10.73;47.16
65384;BME280;51986;52.788;41.368;2024-03-25T10:33:28;98396.31;;;10.69;47.15
65384;BME280;51986;52.788;41.368;2024-03-25T10:35:54;98369.72;;;10.63;47.21
65384;BME280;51986;52.788;41.368;2024-03-25T10:38:20;98381.97;;;10.70;47.54
65384;BME280;51986;52.788;41.368;2024-03-25T10:40:48;98368.69;;;10.73;47.19
65384;BME280;51986;52.788;41.368;2024-03-25T10:43:16;98400.97;;;10.94;46.95
65384;BME280;51986;52.788;41.368;2024-03-25T10:45:45;98351.78;;;10.87;46.62
65384;BME280;51986;52.788;41.368;2024-03-25T10:48:21;98393.09;;;10.77;47.21
65384;BME280;51986;52.788;41.368;2024-03-25T10:50:51;98389.66;;;10.48;48.33
65384;BME280;51986;52.788;41.368;2024-03-25T10:53:20;98391.97;;;10.62;47.41
65384;BME280;51986;52.788;41.368;2024-03-25T10:55:47;98379.84;;;10.65;47.83
65384;BME280;51986;52.788;41.368;2024-03-25T10:58:15;98389.75;;;11.06;47.36
65384;BME280;51986;52.788;41.368;2024-03-25T11:00:42;98362.34;;;10.71;48.02
65384;BME280;51986;52.788;41.368;2024-03-25T11:03:10;98372.00;;;10.45;48.90
65384;BME280;51986;52.788;41.368;2024-03-25T11:05:36;98365.44;;;10.53;48.29
65384;BME280;51986;52.788;41.368;2024-03-25T11:08:30;98363.50;;;10.70;48.58
65384;BME280;51986;52.788;41.368;2024-03-25T11:10:57;98411.25;;;10.59;48.56
65384;BME280;51986;52.788;41.368;2024-03-25T11:13:23;98373.69;;;10.19;50.30
65384;BME280;51986;52.788;41.368;2024-03-25T11:15:49;98375.38;;;10.29;49.69
65384;BME280;51986;52.788;41.368;2024-03-25T11:18:22;98354.59;;;10.15;50.49
65384;BME280;51986;52.788;41.368;2024-03-25T11:21:05;98371.72;;;10.23;50.02
65384;BME280;51986;52.788;41.368;2024-03-25T11:23:49;98391.38;;;10.54;49.77
65384;BME280;51986;52.788;41.368;2024-03-25T11:26:26;98386.84;;;10.55;49.77
65384;BME280;51986;52.788;41.368;2024-03-25T11:28:52;98343.00;;;10.61;49.46
65384;BME280;51986;52.788;41.368;2024-03-25T11:31:20;98391.63;;;10.76;49.28
65384;BME280;51986;52.788;41.368;2024-03-25T11:33:47;98387.47;;;10.26;50.18
65384;BME280;51986;52.788;41.368;2024-03-25T11:36:13;98393.84;;;10.45;50.25
65384;BME280;51986;52.788;41.368;2024-03-25T11:38:39;98387.81;;;10.61;49.77
65384;BME280;51986;52.788;41.368;2024-03-25T11:41:05;98387.13;;;10.90;48.95
65384;BME280;51986;52.788;41.368;2024-03-25T11:43:32;98401.78;;;11.07;48.40
65384;BME280;51986;52.788;41.368;2024-03-25T11:45:58;98393.09;;;10.77;48.96
65384;BME280;51986;52.788;41.368;2024-03-25T11:48:24;98391.75;;;11.02;48.91
65384;BME280;51986;52.788;41.368;2024-03-25T11:50:50;98397.47;;;11.13;48.76
65384;BME280;51986;52.788;41.368;2024-03-25T11:53:16;98393.44;;;11.08;48.58
65384;BME280;51986;52.788;41.368;2024-03-25T11:55:49;98392.44;;;11.19;48.32
65384;BME280;51986;52.788;41.368;2024-03-25T11:58:15;98397.38;;;10.88;49.41
65384;BME280;51986;52.788;41.368;2024-03-25T12:00:45;98397.31;;;10.59;50.39
65384;BME280;51986;52.788;41.368;2024-03-25T12:03:15;98397.13;;;10.66;49.86
65384;BME280;51986;52.788;41.368;2024-03-25T12:05:42;98393.56;;;10.89;49.49
65384;BME280;51986;52.788;41.368;2024-03-25T12:08:08;98404.72;;;10.64;50.20
65384;BME280;51986;52.788;41.368;2024-03-25T12:10:34;98400.59;;;10.46;50.30
65384;BME280;51986;52.788;41.368;2024-03-25T12:13:00;98378.03;;;10.45;50.48
65384;BME280;51986;52.788;41.368;2024-03-25T12:15:26;98383.31;;;10.45;50.72
65384;BME280;51986;52.788;41.368;2024-03-25T12:17:53;98381.25;;;10.53;50.74
65384;BME280;51986;52.788;41.368;2024-03-25T12:20:22;98377.84;;;10.69;50.25
65384;BME280;51986;52.788;41.368;2024-03-25T12:22:48;98391.53;;;10.64;50.35
65384;BME280;51986;52.788;41.368;2024-03-25T12:25:14;98378.44;;;10.60;50.18
65384;BME280;51986;52.788;41.368;2024-03-25T12:27:40;98387.91;;;10.41;51.01
65384;BME280;51986;52.788;41.368;2024-03-25T12:30:10;98380.34;;;10.60;50.73
65384;BME280;51986;52.788;41.368;2024-03-25T12:32:40;98375.66;;;10.35;50.59
65384;BME280;51986;52.788;41.368;2024-03-25T12:35:15;98372.44;;;10.43;50.92
65384;BME280;51986;52.788;41.368;2024-03-25T12:37:43;98383.88;;;10.53;51.29
65384;BME280;51986;52.788;41.368;2024-03-25T12:40:11;98381.16;;;10.73;49.96
65384;BME280;51986;52.788;41.368;2024-03-25T12:42:37;98388.72;;;10.71;49.89
65384;BME280;51986;52.788;41.368;2024-03-25T12:45:03;98364.09;;;10.61;50.10
65384;BME280;51986;52.788;41.368;2024-03-25T12:47:30;98380.81;;;10.71;50.33
65384;BME280;51986;52.788;41.368;2024-03-25T12:49:56;98377.66;;;10.27;51.35
65384;BME280;51986;52.788;41.368;2024-03-25T12:52:22;98398.28;;;10.65;50.77
65384;BME280;51986;52.788;41.368;2024-03-25T12:54:48;98378.50;;;10.73;50.16